sensor_id;sensor_type;location;lat;lon;timestamp;P1;durP1;ratioP1;P2;durP2;ratioP2
73113;SDS011;61301;51.956;5.876;2023-12-04T00:01:45;29.23;;;17.83;;
73113;SDS011;61301;51.956;5.876;2023-12-04T00:04:12;29.20;;;18.02;;
73113;SDS011;61301;51.956;5.876;2023-12-04T00:06:38;31.20;;;18.02;;
73113;SDS011;61301;51.956;5.876;2023-12-04T00:09:05;27.85;;;18.45;;
73113;SDS011;61301;51.956;5.876;2023-12-04T00:11:31;28.92;;;17.58;;
73113;SDS011;61301;51.956;5.876;2023-12-04T00:13:58;30.48;;;18.92;;
73113;SDS011;61301;51.956;5.876;2023-12-04T00:16:24;31.85;;;20.27;;
73113;SDS011;61301;51.956;5.876;2023-12-04T00:18:51;30.67;;;17.48;;
73113;SDS011;61301;51.956;5.876;2023-12-04T00:21:17;31.23;;;18.05;;
73113;SDS011;61301;51.956;5.876;2023-12-04T00:23:43;28.08;;;17.90;;
73113;SDS011;61301;51.956;5.876;2023-12-04T00:26:09;30.45;;;18.13;;
73113;SDS011;61301;51.956;5.876;2023-12-04T00:28:36;30.00;;;16.83;;
73113;SDS011;61301;51.956;5.876;2023-12-04T00:31:02;30.23;;;17.50;;
73113;SDS011;61301;51.956;5.876;2023-12-04T00:33:28;28.70;;;17.48;;
73113;SDS011;61301;51.956;5.876;2023-12-04T00:35:54;27.48;;;17.05;;
73113;SDS011;61301;51.956;5.876;2023-12-04T00:38:20;27.77;;;16.95;;
73113;SDS011;61301;51.956;5.876;2023-12-04T00:40:46;28.95;;;15.85;;
73113;SDS011;61301;51.956;5.876;2023-12-04T00:43:12;30.58;;;15.85;;
73113;SDS011;61301;51.956;5.876;2023-12-04T00:45:38;27.05;;;16.92;;
73113;SDS011;61301;51.956;5.876;2023-12-04T00:48:05;29.20;;;18.35;;
73113;SDS011;61301;51.956;5.876;2023-12-04T00:50:31;34.05;;;19.63;;
73113;SDS011;61301;51.956;5.876;2023-12-04T00:52:57;26.95;;;17.80;;
73113;SDS011;61301;51.956;5.876;2023-12-04T00:55:23;31.40;;;17.80;;
73113;SDS011;61301;51.956;5.876;2023-12-04T00:57:49;27.63;;;16.27;;
73113;SDS011;61301;51.956;5.876;2023-12-04T01:00:15;27.77;;;17.90;;
73113;SDS011;61301;51.956;5.876;2023-12-04T01:02:41;31.20;;;18.65;;
73113;SDS011;61301;51.956;5.876;2023-12-04T01:05:08;27.65;;;16.73;;
73113;SDS011;61301;51.956;5.876;2023-12-04T01:07:34;26.13;;;16.30;;
73113;SDS011;61301;51.956;5.876;2023-12-04T01:10:00;28.60;;;17.20;;
73113;SDS011;61301;51.956;5.876;2023-12-04T01:12:26;26.25;;;16.35;;
73113;SDS011;61301;51.956;5.876;2023-12-04T01:14:52;27.10;;;16.80;;
73113;SDS011;61301;51.956;5.876;2023-12-04T01:17:18;28.88;;;17.38;;
73113;SDS011;61301;51.956;5.876;2023-12-04T01:19:44;27.77;;;16.75;;
73113;SDS011;61301;51.956;5.876;2023-12-04T01:22:10;27.02;;;16.65;;
73113;SDS011;61301;51.956;5.876;2023-12-04T01:24:36;25.98;;;16.10;;
73113;SDS011;61301;51.956;5.876;2023-12-04T01:27:02;25.52;;;15.70;;
73113;SDS011;61301;51.956;5.876;2023-12-04T01:29:28;24.17;;;15.25;;
73113;SDS011;61301;51.956;5.876;2023-12-04T01:31:54;24.30;;;15.18;;
73113;SDS011;61301;51.956;5.876;2023-12-04T01:34:20;26.60;;;16.00;;
73113;SDS011;61301;51.956;5.876;2023-12-04T01:36:46;26.77;;;16.38;;
73113;SDS011;61301;51.956;5.876;2023-12-04T01:39:12;26.98;;;17.45;;
73113;SDS011;61301;51.956;5.876;2023-12-04T01:41:38;28.00;;;16.63;;
73113;SDS011;61301;51.956;5.876;2023-12-04T01:44:05;24.80;;;14.50;;
73113;SDS011;61301;51.956;5.876;2023-12-04T01:46:31;27.55;;;17.30;;
73113;SDS011;61301;51.956;5.876;2023-12-04T01:48:58;25.02;;;15.13;;
73113;SDS011;61301;51.956;5.876;2023-12-04T01:51:24;26.65;;;16.55;;
73113;SDS011;61301;51.956;5.876;2023-12-04T01:53:53;28.05;;;15.88;;
73113;SDS011;61301;51.956;5.876;2023-12-04T01:56:20;23.88;;;14.65;;
73113;SDS011;61301;51.956;5.876;2023-12-04T01:58:46;26.08;;;14.93;;
73113;SDS011;61301;51.956;5.876;2023-12-04T02:01:12;24.23;;;14.95;;
73113;SDS011;61301;51.956;5.876;2023-12-04T02:03:40;23.15;;;14.13;;
73113;SDS011;61301;51.956;5.876;2023-12-04T02:06:07;24.88;;;15.65;;
73113;SDS011;61301;51.956;5.876;2023-12-04T02:08:34;26.95;;;15.55;;
73113;SDS011;61301;51.956;5.876;2023-12-04T02:11:01;24.15;;;15.38;;
73113;SDS011;61301;51.956;5.876;2023-12-04T02:13:27;25.10;;;15.48;;
73113;SDS011;61301;51.956;5.876;2023-12-04T02:15:53;23.15;;;14.68;;
73113;SDS011;61301;51.956;5.876;2023-12-04T02:18:21;24.98;;;14.65;;
73113;SDS011;61301;51.956;5.876;2023-12-04T02:20:48;23.17;;;14.63;;
73113;SDS011;61301;51.956;5.876;2023-12-04T02:23:14;28.15;;;14.80;;
73113;SDS011;61301;51.956;5.876;2023-12-04T02:25:40;27.50;;;16.17;;
73113;SDS011;61301;51.956;5.876;2023-12-04T02:28:06;23.55;;;14.25;;
73113;SDS011;61301;51.956;5.876;2023-12-04T02:30:36;24.17;;;14.27;;
73113;SDS011;61301;51.956;5.876;2023-12-04T02:33:04;25.10;;;14.95;;
73113;SDS011;61301;51.956;5.876;2023-12-04T02:35:32;25.40;;;14.55;;
73113;SDS011;61301;51.956;5.876;2023-12-04T02:38:00;26.45;;;16.25;;
73113;SDS011;61301;51.956;5.876;2023-12-04T02:40:27;23.92;;;14.32;;
73113;SDS011;61301;51.956;5.876;2023-12-04T02:42:53;20.50;;;12.15;;
73113;SDS011;61301;51.956;5.876;2023-12-04T02:45:19;19.80;;;12.38;;
73113;SDS011;61301;51.956;5.876;2023-12-04T02:47:45;21.15;;;13.43;;
73113;SDS011;61301;51.956;5.876;2023-12-04T02:50:11;20.15;;;13.15;;
73113;SDS011;61301;51.956;5.876;2023-12-04T02:52:37;19.23;;;12.57;;
73113;SDS011;61301;51.956;5.876;2023-12-04T02:55:03;21.70;;;13.13;;
73113;SDS011;61301;51.956;5.876;2023-12-04T02:57:30;22.02;;;13.30;;
73113;SDS011;61301;51.956;5.876;2023-12-04T02:59:56;20.38;;;13.40;;
73113;SDS011;61301;51.956;5.876;2023-12-04T03:02:22;20.77;;;12.95;;
73113;SDS011;61301;51.956;5.876;2023-12-04T03:04:48;19.08;;;12.15;;
73113;SDS011;61301;51.956;5.876;2023-12-04T03:07:14;19.67;;;12.68;;
73113;SDS011;61301;51.956;5.876;2023-12-04T03:09:40;19.10;;;13.25;;
73113;SDS011;61301;51.956;5.876;2023-12-04T03:12:06;19.77;;;11.95;;
73113;SDS011;61301;51.956;5.876;2023-12-04T03:14:32;23.92;;;13.35;;
73113;SDS011;61301;51.956;5.876;2023-12-04T03:16:58;19.17;;;12.70;;
73113;SDS011;61301;51.956;5.876;2023-12-04T03:19:24;21.60;;;13.73;;
73113;SDS011;61301;51.956;5.876;2023-12-04T03:21:50;19.67;;;12.30;;
73113;SDS011;61301;51.956;5.876;2023-12-04T03:24:16;19.25;;;12.32;;
73113;SDS011;61301;51.956;5.876;2023-12-04T03:26:41;19.58;;;12.43;;
73113;SDS011;61301;51.956;5.876;2023-12-04T03:29:07;21.30;;;13.20;;
73113;SDS011;61301;51.956;5.876;2023-12-04T03:31:33;19.92;;;13.98;;
73113;SDS011;61301;51.956;5.876;2023-12-04T03:33:59;18.75;;;12.43;;
73113;SDS011;61301;51.956;5.876;2023-12-04T03:36:25;19.10;;;12.07;;
73113;SDS011;61301;51.956;5.876;2023-12-04T03:38:51;18.30;;;11.27;;
73113;SDS011;61301;51.956;5.876;2023-12-04T03:41:17;19.50;;;11.23;;
73113;SDS011;61301;51.956;5.876;2023-12-04T03:43:43;16.23;;;10.82;;
73113;SDS011;61301;51.956;5.876;2023-12-04T03:46:09;18.85;;;11.65;;
73113;SDS011;61301;51.956;5.876;2023-12-04T03:48:35;15.95;;;10.27;;
73113;SDS011;61301;51.956;5.876;2023-12-04T03:51:01;15.90;;;11.35;;
73113;SDS011;61301;51.956;5.876;2023-12-04T03:53:27;16.33;;;10.05;;
73113;SDS011;61301;51.956;5.876;2023-12-04T03:55:53;19.00;;;11.23;;
73113;SDS011;61301;51.956;5.876;2023-12-04T03:58:19;19.13;;;11.73;;
73113;SDS011;61301;51.956;5.876;2023-12-04T04:00:45;18.25;;;12.82;;
73113;SDS011;61301;51.956;5.876;2023-12-04T04:03:11;19.08;;;12.20;;
73113;SDS011;61301;51.956;5.876;2023-12-04T04:05:37;15.73;;;11.07;;
73113;SDS011;61301;51.956;5.876;2023-12-04T04:08:03;19.13;;;12.25;;
73113;SDS011;61301;51.956;5.876;2023-12-04T04:10:30;17.02;;;10.35;;
73113;SDS011;61301;51.956;5.876;2023-12-04T04:12:57;16.08;;;10.48;;
73113;SDS011;61301;51.956;5.876;2023-12-04T04:15:23;16.60;;;11.40;;
73113;SDS011;61301;51.956;5.876;2023-12-04T04:17:49;18.02;;;11.77;;
73113;SDS011;61301;51.956;5.876;2023-12-04T04:20:15;16.27;;;10.73;;
73113;SDS011;61301;51.956;5.876;2023-12-04T04:22:41;15.70;;;10.18;;
73113;SDS011;61301;51.956;5.876;2023-12-04T04:25:07;15.20;;;10.10;;
73113;SDS011;61301;51.956;5.876;2023-12-04T04:27:34;15.25;;;9.85;;
73113;SDS011;61301;51.956;5.876;2023-12-04T04:30:00;15.25;;;10.18;;
73113;SDS011;61301;51.956;5.876;2023-12-04T04:32:27;14.57;;;9.85;;
73113;SDS011;61301;51.956;5.876;2023-12-04T04:34:53;18.63;;;10.75;;
73113;SDS011;61301;51.956;5.876;2023-12-04T04:37:19;13.52;;;9.05;;
73113;SDS011;61301;51.956;5.876;2023-12-04T04:39:45;17.48;;;10.93;;
73113;SDS011;61301;51.956;5.876;2023-12-04T04:42:11;16.63;;;10.95;;
73113;SDS011;61301;51.956;5.876;2023-12-04T04:44:37;14.93;;;10.63;;
73113;SDS011;61301;51.956;5.876;2023-12-04T04:47:03;15.85;;;10.60;;
73113;SDS011;61301;51.956;5.876;2023-12-04T04:49:29;16.75;;;10.60;;
73113;SDS011;61301;51.956;5.876;2023-12-04T04:51:55;13.93;;;9.60;;
73113;SDS011;61301;51.956;5.876;2023-12-04T04:54:21;14.60;;;9.77;;
73113;SDS011;61301;51.956;5.876;2023-12-04T04:56:47;14.90;;;10.98;;
73113;SDS011;61301;51.956;5.876;2023-12-04T04:59:13;16.90;;;9.13;;
73113;SDS011;61301;51.956;5.876;2023-12-04T05:01:39;17.90;;;10.75;;
73113;SDS011;61301;51.956;5.876;2023-12-04T05:04:05;15.75;;;9.95;;
73113;SDS011;61301;51.956;5.876;2023-12-04T05:06:31;16.33;;;10.52;;
73113;SDS011;61301;51.956;5.876;2023-12-04T05:08:57;15.88;;;10.32;;
73113;SDS011;61301;51.956;5.876;2023-12-04T05:11:23;19.25;;;10.70;;
73113;SDS011;61301;51.956;5.876;2023-12-04T05:13:49;13.25;;;9.65;;
73113;SDS011;61301;51.956;5.876;2023-12-04T05:16:15;15.20;;;10.32;;
73113;SDS011;61301;51.956;5.876;2023-12-04T05:18:41;15.45;;;10.40;;
73113;SDS011;61301;51.956;5.876;2023-12-04T05:21:10;16.83;;;10.13;;
73113;SDS011;61301;51.956;5.876;2023-12-04T05:23:37;16.90;;;10.23;;
73113;SDS011;61301;51.956;5.876;2023-12-04T05:26:04;14.75;;;10.05;;
73113;SDS011;61301;51.956;5.876;2023-12-04T05:28:31;15.80;;;9.80;;
73113;SDS011;61301;51.956;5.876;2023-12-04T05:30:57;14.85;;;10.45;;
73113;SDS011;61301;51.956;5.876;2023-12-04T05:33:23;14.50;;;9.48;;
73113;SDS011;61301;51.956;5.876;2023-12-04T05:35:49;14.45;;;9.65;;
73113;SDS011;61301;51.956;5.876;2023-12-04T05:38:18;15.25;;;9.38;;
73113;SDS011;61301;51.956;5.876;2023-12-04T05:40:44;14.35;;;9.32;;
73113;SDS011;61301;51.956;5.876;2023-12-04T05:43:10;15.73;;;10.60;;
73113;SDS011;61301;51.956;5.876;2023-12-04T05:45:36;15.77;;;10.20;;
73113;SDS011;61301;51.956;5.876;2023-12-04T05:48:02;16.02;;;11.02;;
73113;SDS011;61301;51.956;5.876;2023-12-04T05:50:28;14.73;;;9.57;;
73113;SDS011;61301;51.956;5.876;2023-12-04T05:52:54;12.45;;;8.98;;
73113;SDS011;61301;51.956;5.876;2023-12-04T05:55:20;13.32;;;9.32;;
73113;SDS011;61301;51.956;5.876;2023-12-04T05:57:46;15.32;;;9.90;;
73113;SDS011;61301;51.956;5.876;2023-12-04T06:00:12;15.07;;;10.30;;
73113;SDS011;61301;51.956;5.876;2023-12-04T06:02:39;14.50;;;9.52;;
73113;SDS011;61301;51.956;5.876;2023-12-04T06:05:06;14.52;;;9.63;;
73113;SDS011;61301;51.956;5.876;2023-12-04T06:07:33;16.38;;;10.32;;
73113;SDS011;61301;51.956;5.876;2023-12-04T06:10:00;13.05;;;9.20;;
73113;SDS011;61301;51.956;5.876;2023-12-04T06:12:26;14.48;;;9.55;;
73113;SDS011;61301;51.956;5.876;2023-12-04T06:14:52;13.23;;;9.05;;
73113;SDS011;61301;51.956;5.876;2023-12-04T06:17:17;13.95;;;9.10;;
73113;SDS011;61301;51.956;5.876;2023-12-04T06:19:45;12.05;;;8.60;;
73113;SDS011;61301;51.956;5.876;2023-12-04T06:22:11;13.65;;;8.43;;
73113;SDS011;61301;51.956;5.876;2023-12-04T06:24:38;13.85;;;9.15;;
73113;SDS011;61301;51.956;5.876;2023-12-04T06:27:04;12.82;;;8.95;;
73113;SDS011;61301;51.956;5.876;2023-12-04T06:29:31;14.00;;;8.90;;
73113;SDS011;61301;51.956;5.876;2023-12-04T06:31:58;13.45;;;8.55;;
73113;SDS011;61301;51.956;5.876;2023-12-04T06:34:24;12.80;;;8.02;;
73113;SDS011;61301;51.956;5.876;2023-12-04T06:36:50;12.13;;;9.10;;
73113;SDS011;61301;51.956;5.876;2023-12-04T06:39:16;11.77;;;7.97;;
73113;SDS011;61301;51.956;5.876;2023-12-04T06:41:43;12.32;;;8.93;;
73113;SDS011;61301;51.956;5.876;2023-12-04T06:44:12;10.38;;;8.00;;
73113;SDS011;61301;51.956;5.876;2023-12-04T06:46:38;13.65;;;8.50;;
73113;SDS011;61301;51.956;5.876;2023-12-04T06:49:05;14.23;;;8.38;;
73113;SDS011;61301;51.956;5.876;2023-12-04T06:51:34;15.90;;;8.63;;
73113;SDS011;61301;51.956;5.876;2023-12-04T06:54:00;12.35;;;8.32;;
73113;SDS011;61301;51.956;5.876;2023-12-04T06:56:26;12.20;;;8.25;;
73113;SDS011;61301;51.956;5.876;2023-12-04T06:58:52;11.80;;;7.85;;
73113;SDS011;61301;51.956;5.876;2023-12-04T07:01:18;11.10;;;8.23;;
73113;SDS011;61301;51.956;5.876;2023-12-04T07:03:44;13.63;;;7.90;;
73113;SDS011;61301;51.956;5.876;2023-12-04T07:06:10;11.70;;;7.85;;
73113;SDS011;61301;51.956;5.876;2023-12-04T07:08:36;14.27;;;8.20;;
73113;SDS011;61301;51.956;5.876;2023-12-04T07:11:02;13.15;;;8.07;;
73113;SDS011;61301;51.956;5.876;2023-12-04T07:13:28;12.60;;;8.45;;
73113;SDS011;61301;51.956;5.876;2023-12-04T07:15:54;12.98;;;8.40;;
73113;SDS011;61301;51.956;5.876;2023-12-04T07:18:20;11.27;;;8.63;;
73113;SDS011;61301;51.956;5.876;2023-12-04T07:20:46;11.60;;;7.57;;
73113;SDS011;61301;51.956;5.876;2023-12-04T07:23:12;11.00;;;7.57;;
73113;SDS011;61301;51.956;5.876;2023-12-04T07:25:38;12.77;;;7.70;;
73113;SDS011;61301;51.956;5.876;2023-12-04T07:28:04;12.00;;;7.68;;
73113;SDS011;61301;51.956;5.876;2023-12-04T07:30:30;10.48;;;7.00;;
73113;SDS011;61301;51.956;5.876;2023-12-04T07:32:57;12.20;;;7.13;;
73113;SDS011;61301;51.956;5.876;2023-12-04T07:35:22;11.73;;;7.05;;
73113;SDS011;61301;51.956;5.876;2023-12-04T07:37:48;10.88;;;6.47;;
73113;SDS011;61301;51.956;5.876;2023-12-04T07:40:14;10.38;;;6.00;;
73113;SDS011;61301;51.956;5.876;2023-12-04T07:42:41;11.80;;;7.22;;
73113;SDS011;61301;51.956;5.876;2023-12-04T07:45:08;10.40;;;6.93;;
73113;SDS011;61301;51.956;5.876;2023-12-04T07:47:36;11.80;;;7.10;;
73113;SDS011;61301;51.956;5.876;2023-12-04T07:50:03;9.20;;;5.72;;
73113;SDS011;61301;51.956;5.876;2023-12-04T07:52:30;10.68;;;6.90;;
73113;SDS011;61301;51.956;5.876;2023-12-04T07:54:55;11.65;;;6.72;;
73113;SDS011;61301;51.956;5.876;2023-12-04T07:57:22;10.65;;;6.57;;
73113;SDS011;61301;51.956;5.876;2023-12-04T07:59:48;11.13;;;7.10;;
73113;SDS011;61301;51.956;5.876;2023-12-04T08:02:14;9.90;;;6.47;;
73113;SDS011;61301;51.956;5.876;2023-12-04T08:04:40;13.10;;;7.22;;
73113;SDS011;61301;51.956;5.876;2023-12-04T08:07:06;8.90;;;6.13;;
73113;SDS011;61301;51.956;5.876;2023-12-04T08:09:32;10.65;;;6.93;;
73113;SDS011;61301;51.956;5.876;2023-12-04T08:11:58;11.05;;;8.00;;
73113;SDS011;61301;51.956;5.876;2023-12-04T08:14:24;12.45;;;7.18;;
73113;SDS011;61301;51.956;5.876;2023-12-04T08:16:52;10.75;;;6.80;;
73113;SDS011;61301;51.956;5.876;2023-12-04T08:19:18;11.13;;;7.60;;
73113;SDS011;61301;51.956;5.876;2023-12-04T08:21:44;10.85;;;6.85;;
73113;SDS011;61301;51.956;5.876;2023-12-04T08:24:10;11.13;;;7.38;;
73113;SDS011;61301;51.956;5.876;2023-12-04T08:26:36;11.40;;;7.60;;
73113;SDS011;61301;51.956;5.876;2023-12-04T08:29:02;9.95;;;7.13;;
73113;SDS011;61301;51.956;5.876;2023-12-04T08:31:28;10.70;;;7.13;;
73113;SDS011;61301;51.956;5.876;2023-12-04T08:33:54;8.75;;;6.38;;
73113;SDS011;61301;51.956;5.876;2023-12-04T08:36:20;8.73;;;6.15;;
73113;SDS011;61301;51.956;5.876;2023-12-04T08:38:46;9.30;;;6.63;;
73113;SDS011;61301;51.956;5.876;2023-12-04T08:41:12;10.90;;;7.32;;
73113;SDS011;61301;51.956;5.876;2023-12-04T08:43:38;9.75;;;6.50;;
73113;SDS011;61301;51.956;5.876;2023-12-04T08:46:04;11.93;;;6.22;;
73113;SDS011;61301;51.956;5.876;2023-12-04T08:48:30;9.13;;;6.18;;
73113;SDS011;61301;51.956;5.876;2023-12-04T08:50:56;10.98;;;7.13;;
73113;SDS011;61301;51.956;5.876;2023-12-04T08:53:22;12.65;;;7.70;;
73113;SDS011;61301;51.956;5.876;2023-12-04T08:55:48;11.05;;;7.22;;
73113;SDS011;61301;51.956;5.876;2023-12-04T08:58:14;10.63;;;7.10;;
73113;SDS011;61301;51.956;5.876;2023-12-04T09:00:40;12.60;;;7.80;;
73113;SDS011;61301;51.956;5.876;2023-12-04T09:03:09;9.95;;;6.78;;
73113;SDS011;61301;51.956;5.876;2023-12-04T09:05:38;11.10;;;7.40;;
73113;SDS011;61301;51.956;5.876;2023-12-04T09:08:04;11.18;;;7.63;;
73113;SDS011;61301;51.956;5.876;2023-12-04T09:10:30;9.73;;;6.90;;
73113;SDS011;61301;51.956;5.876;2023-12-04T09:12:56;11.40;;;8.05;;
73113;SDS011;61301;51.956;5.876;2023-12-04T09:15:22;12.20;;;7.13;;
73113;SDS011;61301;51.956;5.876;2023-12-04T09:17:48;9.18;;;6.30;;
73113;SDS011;61301;51.956;5.876;2023-12-04T09:20:13;8.95;;;6.60;;
73113;SDS011;61301;51.956;5.876;2023-12-04T09:22:39;10.55;;;6.68;;
73113;SDS011;61301;51.956;5.876;2023-12-04T09:25:06;9.48;;;6.43;;
73113;SDS011;61301;51.956;5.876;2023-12-04T09:27:34;10.27;;;6.95;;
73113;SDS011;61301;51.956;5.876;2023-12-04T09:30:00;11.80;;;7.68;;
73113;SDS011;61301;51.956;5.876;2023-12-04T09:32:26;10.63;;;7.10;;
73113;SDS011;61301;51.956;5.876;2023-12-04T09:34:52;10.27;;;7.13;;
73113;SDS011;61301;51.956;5.876;2023-12-04T09:37:18;11.02;;;5.90;;
73113;SDS011;61301;51.956;5.876;2023-12-04T09:39:44;6.60;;;4.82;;
73113;SDS011;61301;51.956;5.876;2023-12-04T09:42:10;8.57;;;5.68;;
73113;SDS011;61301;51.956;5.876;2023-12-04T09:44:38;11.20;;;7.47;;
73113;SDS011;61301;51.956;5.876;2023-12-04T09:47:05;6.95;;;5.35;;
73113;SDS011;61301;51.956;5.876;2023-12-04T09:49:33;10.57;;;7.05;;
73113;SDS011;61301;51.956;5.876;2023-12-04T09:51:59;10.75;;;7.25;;
73113;SDS011;61301;51.956;5.876;2023-12-04T09:54:26;9.88;;;7.20;;
73113;SDS011;61301;51.956;5.876;2023-12-04T09:56:53;12.95;;;7.90;;
73113;SDS011;61301;51.956;5.876;2023-12-04T09:59:19;9.60;;;7.00;;
73113;SDS011;61301;51.956;5.876;2023-12-04T10:01:50;10.57;;;7.07;;
73113;SDS011;61301;51.956;5.876;2023-12-04T10:04:17;9.90;;;6.82;;
73113;SDS011;61301;51.956;5.876;2023-12-04T10:06:43;8.05;;;5.55;;
73113;SDS011;61301;51.956;5.876;2023-12-04T10:09:10;11.10;;;7.13;;
73113;SDS011;61301;51.956;5.876;2023-12-04T10:11:39;12.43;;;7.93;;
73113;SDS011;61301;51.956;5.876;2023-12-04T10:14:13;10.55;;;7.30;;
73113;SDS011;61301;51.956;5.876;2023-12-04T10:16:43;11.43;;;8.25;;
73113;SDS011;61301;51.956;5.876;2023-12-04T10:21:43;12.55;;;8.27;;
73113;SDS011;61301;51.956;5.876;2023-12-04T10:27:12;14.35;;;8.40;;
73113;SDS011;61301;51.956;5.876;2023-12-04T10:29:46;10.98;;;7.60;;
73113;SDS011;61301;51.956;5.876;2023-12-04T10:32:13;13.25;;;9.63;;
73113;SDS011;61301;51.956;5.876;2023-12-04T10:34:43;13.20;;;8.27;;
73113;SDS011;61301;51.956;5.876;2023-12-04T10:37:10;14.38;;;8.55;;
73113;SDS011;61301;51.956;5.876;2023-12-04T10:39:45;10.20;;;7.75;;
73113;SDS011;61301;51.956;5.876;2023-12-04T10:42:24;11.10;;;7.95;;
73113;SDS011;61301;51.956;5.876;2023-12-04T10:44:51;12.23;;;8.70;;
73113;SDS011;61301;51.956;5.876;2023-12-04T10:47:20;16.67;;;8.73;;
73113;SDS011;61301;51.956;5.876;2023-12-04T10:49:50;12.05;;;8.13;;
73113;SDS011;61301;51.956;5.876;2023-12-04T10:52:17;11.57;;;7.82;;
73113;SDS011;61301;51.956;5.876;2023-12-04T10:54:50;10.68;;;7.70;;
73113;SDS011;61301;51.956;5.876;2023-12-04T10:57:20;10.77;;;7.30;;
73113;SDS011;61301;51.956;5.876;2023-12-04T10:59:48;12.02;;;7.45;;
73113;SDS011;61301;51.956;5.876;2023-12-04T11:02:19;12.45;;;8.45;;
73113;SDS011;61301;51.956;5.876;2023-12-04T11:04:49;9.73;;;7.07;;
73113;SDS011;61301;51.956;5.876;2023-12-04T11:07:19;11.38;;;8.43;;
73113;SDS011;61301;51.956;5.876;2023-12-04T11:09:47;11.60;;;8.07;;
73113;SDS011;61301;51.956;5.876;2023-12-04T11:12:16;12.23;;;8.10;;
73113;SDS011;61301;51.956;5.876;2023-12-04T11:14:49;14.55;;;8.95;;
73113;SDS011;61301;51.956;5.876;2023-12-04T11:17:21;11.05;;;7.72;;
73113;SDS011;61301;51.956;5.876;2023-12-04T11:19:59;10.55;;;7.57;;
73113;SDS011;61301;51.956;5.876;2023-12-04T11:22:27;11.88;;;8.23;;
73113;SDS011;61301;51.956;5.876;2023-12-04T11:24:54;12.35;;;8.98;;
73113;SDS011;61301;51.956;5.876;2023-12-04T11:27:21;12.18;;;8.75;;
73113;SDS011;61301;51.956;5.876;2023-12-04T11:29:48;10.48;;;6.93;;
73113;SDS011;61301;51.956;5.876;2023-12-04T11:32:17;10.85;;;7.47;;
73113;SDS011;61301;51.956;5.876;2023-12-04T11:34:54;13.15;;;7.90;;
73113;SDS011;61301;51.956;5.876;2023-12-04T11:37:21;11.38;;;7.72;;
73113;SDS011;61301;51.956;5.876;2023-12-04T11:39:52;12.02;;;7.97;;
73113;SDS011;61301;51.956;5.876;2023-12-04T11:42:19;12.68;;;8.15;;
73113;SDS011;61301;51.956;5.876;2023-12-04T11:44:48;12.60;;;9.00;;
73113;SDS011;61301;51.956;5.876;2023-12-04T11:47:15;14.38;;;8.20;;
73113;SDS011;61301;51.956;5.876;2023-12-04T11:49:41;13.40;;;7.72;;
73113;SDS011;61301;51.956;5.876;2023-12-04T11:52:07;11.68;;;8.15;;
73113;SDS011;61301;51.956;5.876;2023-12-04T11:57:37;14.00;;;8.30;;
73113;SDS011;61301;51.956;5.876;2023-12-04T12:00:15;10.98;;;8.35;;
73113;SDS011;61301;51.956;5.876;2023-12-04T12:05:15;12.73;;;7.45;;
73113;SDS011;61301;51.956;5.876;2023-12-04T12:07:41;12.38;;;7.97;;
73113;SDS011;61301;51.956;5.876;2023-12-04T12:10:08;14.98;;;8.55;;
73113;SDS011;61301;51.956;5.876;2023-12-04T12:12:36;10.00;;;7.25;;
73113;SDS011;61301;51.956;5.876;2023-12-04T12:15:02;10.63;;;7.55;;
73113;SDS011;61301;51.956;5.876;2023-12-04T12:17:28;9.75;;;7.28;;
73113;SDS011;61301;51.956;5.876;2023-12-04T12:19:55;9.57;;;6.93;;
73113;SDS011;61301;51.956;5.876;2023-12-04T12:22:24;10.85;;;7.35;;
73113;SDS011;61301;51.956;5.876;2023-12-04T12:24:50;11.77;;;7.93;;
73113;SDS011;61301;51.956;5.876;2023-12-04T12:27:16;11.43;;;7.78;;
73113;SDS011;61301;51.956;5.876;2023-12-04T12:29:42;10.40;;;7.55;;
73113;SDS011;61301;51.956;5.876;2023-12-04T12:32:08;11.73;;;8.50;;
73113;SDS011;61301;51.956;5.876;2023-12-04T12:34:34;10.40;;;7.22;;
73113;SDS011;61301;51.956;5.876;2023-12-04T12:37:04;11.20;;;7.70;;
73113;SDS011;61301;51.956;5.876;2023-12-04T12:39:31;12.98;;;8.75;;
73113;SDS011;61301;51.956;5.876;2023-12-04T12:41:58;13.18;;;8.05;;
73113;SDS011;61301;51.956;5.876;2023-12-04T12:44:24;12.10;;;8.15;;
73113;SDS011;61301;51.956;5.876;2023-12-04T12:46:51;10.88;;;7.68;;
73113;SDS011;61301;51.956;5.876;2023-12-04T12:49:18;10.73;;;7.38;;
73113;SDS011;61301;51.956;5.876;2023-12-04T12:51:47;12.32;;;7.95;;
73113;SDS011;61301;51.956;5.876;2023-12-04T12:54:13;12.25;;;7.15;;
73113;SDS011;61301;51.956;5.876;2023-12-04T12:56:39;15.93;;;8.13;;
73113;SDS011;61301;51.956;5.876;2023-12-04T12:59:06;13.15;;;8.45;;
73113;SDS011;61301;51.956;5.876;2023-12-04T13:01:32;12.52;;;8.50;;
73113;SDS011;61301;51.956;5.876;2023-12-04T13:03:59;11.32;;;7.75;;
73113;SDS011;61301;51.956;5.876;2023-12-04T13:06:26;11.52;;;7.82;;
73113;SDS011;61301;51.956;5.876;2023-12-04T13:08:52;13.05;;;8.88;;
73113;SDS011;61301;51.956;5.876;2023-12-04T13:11:18;12.35;;;8.40;;
73113;SDS011;61301;51.956;5.876;2023-12-04T13:13:44;11.68;;;8.18;;
73113;SDS011;61301;51.956;5.876;2023-12-04T13:16:10;15.13;;;8.38;;
73113;SDS011;61301;51.956;5.876;2023-12-04T13:18:36;12.77;;;8.60;;
73113;SDS011;61301;51.956;5.876;2023-12-04T13:21:03;12.70;;;7.15;;
73113;SDS011;61301;51.956;5.876;2023-12-04T13:23:30;12.80;;;8.20;;
73113;SDS011;61301;51.956;5.876;2023-12-04T13:25:56;10.02;;;7.50;;
73113;SDS011;61301;51.956;5.876;2023-12-04T13:28:22;12.63;;;8.98;;
73113;SDS011;61301;51.956;5.876;2023-12-04T13:30:48;12.75;;;8.93;;
73113;SDS011;61301;51.956;5.876;2023-12-04T13:33:14;14.00;;;8.43;;
73113;SDS011;61301;51.956;5.876;2023-12-04T13:35:40;11.85;;;8.35;;
73113;SDS011;61301;51.956;5.876;2023-12-04T13:38:06;10.05;;;6.93;;
73113;SDS011;61301;51.956;5.876;2023-12-04T13:40:41;11.40;;;7.95;;
73113;SDS011;61301;51.956;5.876;2023-12-04T13:43:14;11.73;;;8.35;;
73113;SDS011;61301;51.956;5.876;2023-12-04T13:45:59;10.80;;;7.65;;
73113;SDS011;61301;51.956;5.876;2023-12-04T13:48:25;13.00;;;7.50;;
73113;SDS011;61301;51.956;5.876;2023-12-04T13:50:51;10.60;;;7.63;;
73113;SDS011;61301;51.956;5.876;2023-12-04T13:53:18;11.02;;;7.72;;
73113;SDS011;61301;51.956;5.876;2023-12-04T13:55:50;10.50;;;7.47;;
73113;SDS011;61301;51.956;5.876;2023-12-04T13:58:19;12.57;;;7.72;;
73113;SDS011;61301;51.956;5.876;2023-12-04T14:01:08;13.32;;;7.72;;
73113;SDS011;61301;51.956;5.876;2023-12-04T14:03:47;13.55;;;7.78;;
73113;SDS011;61301;51.956;5.876;2023-12-04T14:06:13;13.43;;;8.38;;
73113;SDS011;61301;51.956;5.876;2023-12-04T14:08:41;10.77;;;7.78;;
73113;SDS011;61301;51.956;5.876;2023-12-04T14:11:07;13.25;;;8.20;;
73113;SDS011;61301;51.956;5.876;2023-12-04T14:13:35;11.80;;;7.28;;
73113;SDS011;61301;51.956;5.876;2023-12-04T14:16:01;11.75;;;7.72;;
73113;SDS011;61301;51.956;5.876;2023-12-04T14:18:28;10.55;;;7.85;;
73113;SDS011;61301;51.956;5.876;2023-12-04T14:20:56;13.68;;;7.90;;
73113;SDS011;61301;51.956;5.876;2023-12-04T14:23:22;13.40;;;8.05;;
73113;SDS011;61301;51.956;5.876;2023-12-04T14:25:48;12.55;;;9.20;;
73113;SDS011;61301;51.956;5.876;2023-12-04T14:28:14;12.57;;;8.57;;
73113;SDS011;61301;51.956;5.876;2023-12-04T14:30:40;11.18;;;7.65;;
73113;SDS011;61301;51.956;5.876;2023-12-04T14:33:06;13.05;;;8.90;;
73113;SDS011;61301;51.956;5.876;2023-12-04T14:35:35;12.02;;;7.78;;
73113;SDS011;61301;51.956;5.876;2023-12-04T14:38:03;13.32;;;9.02;;
73113;SDS011;61301;51.956;5.876;2023-12-04T14:40:30;10.48;;;7.55;;